Time;durP1;ratioP1;P1;durP2;ratioP2;P2;SDS_P1;SDS_P2;PMS_P1;PMS_P2;Temp;Humidity;BMP_temperature;BMP_pressure;BME280_temperature;BME280_humidity;BME280_pressure;Samples;Min_cycle;Max_cycle;Signal;HPM_P1;HPM_P2
2024/01/11 00:01:35;;;;;;;;;;;-4.90;99.90;;;;;;5069100;28;19930;-33
2024/01/11 00:04:02;;;;;;;;;;;-4.80;99.90;;;;;;5070316;28;19924;-31
2024/01/11 00:06:29;;;;;;;;;;;-4.90;99.90;;;;;;5073047;28;19924;-33
2024/01/11 00:08:55;;;;;;;;;;;-4.90;99.90;;;;;;5072577;28;20200;-33
2024/01/11 00:11:22;;;;;;;;;;;-4.90;99.90;;;;;;5088854;28;19924;-31
2024/01/11 00:13:48;;;;;;;;;;;-4.90;99.90;;;;;;5091507;28;19928;-32
2024/01/11 00:16:15;;;;;;;;;;;-4.90;99.90;;;;;;5091837;28;19977;-31
2024/01/11 00:18:44;;;;;;;;;;;-5.00;99.90;;;;;;5073248;28;20358;-31
2024/01/11 00:21:11;;;;;;;;;;;-4.90;99.90;;;;;;5067300;28;19954;-32
2024/01/11 00:23:38;;;;;;;;;;;-5.00;99.90;;;;;;5077895;28;19924;-32
2024/01/11 00:26:04;;;;;;;;;;;-5.00;99.90;;;;;;5073960;28;19965;-31
2024/01/11 00:28:31;;;;;;;;;;;-5.00;99.90;;;;;;5073325;28;19969;-32
2024/01/11 00:30:58;;;;;;;;;;;-5.00;99.90;;;;;;5070376;28;19981;-33
2024/01/11 00:33:24;;;;;;;;;;;-5.00;99.90;;;;;;5074362;28;19924;-33
2024/01/11 00:35:52;;;;;;;;;;;-5.00;99.90;;;;;;5072677;28;19932;-31
2024/01/11 00:38:19;;;;;;;;;;;-5.00;99.90;;;;;;5067722;28;19966;-31
2024/01/11 00:40:46;;;;;;;;;;;-5.10;99.90;;;;;;5088867;28;19924;-31
2024/01/11 00:43:12;;;;;;;;;;;-5.10;99.90;;;;;;5081663;28;20416;-31
2024/01/11 00:45:39;;;;;;;;;;;-5.00;99.90;;;;;;5073539;28;19983;-32
2024/01/11 00:48:05;;;;;;;;;;;-5.10;99.90;;;;;;5072503;28;20424;-33
2024/01/11 00:50:32;;;;;;;;;;;-5.10;99.90;;;;;;5070437;28;19924;-32
2024/01/11 00:53:01;;;;;;;;;;;-5.10;99.90;;;;;;5069928;28;20299;-31
2024/01/11 00:55:27;;;;;;;;;;;-5.10;99.90;;;;;;5070831;28;20338;-31
2024/01/11 00:57:54;;;;;;;;;;;-5.10;99.90;;;;;;5068842;28;20429;-33
2024/01/11 01:00:20;;;;;;;;;;;-5.10;99.90;;;;;;5068276;28;19929;-32
2024/01/11 01:02:47;;;;;;;;;;;-5.10;99.90;;;;;;5067859;28;19956;-33
2024/01/11 01:05:14;;;;;;;;;;;-5.10;99.90;;;;;;5070150;28;20006;-33
2024/01/11 01:07:41;;;;;;;;;;;-5.10;99.90;;;;;;5069555;28;19925;-31
2024/01/11 01:10:09;;;;;;;;;;;-5.10;99.90;;;;;;5067853;28;19990;-32
2024/01/11 01:12:36;;;;;;;;;;;-5.10;99.90;;;;;;5069751;28;19954;-31
2024/01/11 01:15:02;;;;;;;;;;;-5.10;99.90;;;;;;5072764;28;20392;-32
2024/01/11 01:17:29;;;;;;;;;;;-5.10;99.90;;;;;;5072932;28;20384;-31
2024/01/11 01:19:56;;;;;;;;;;;-5.10;99.90;;;;;;5073149;28;19951;-32
2024/01/11 01:22:22;;;;;;;;;;;-5.10;99.90;;;;;;5072870;28;19924;-31
2024/01/11 01:24:49;;;;;;;;;;;-5.10;99.90;;;;;;5071136;28;19974;-33
2024/01/11 01:27:17;;;;;;;;;;;-5.00;99.90;;;;;;5072235;28;20372;-32
2024/01/11 01:29:43;;;;;;;;;;;-5.20;99.90;;;;;;5073334;28;19951;-31
2024/01/11 01:32:10;;;;;;;;;;;-5.10;99.90;;;;;;5074501;28;19928;-32
2024/01/11 01:34:37;;;;;;;;;;;-5.10;99.90;;;;;;5071082;28;19932;-32
2024/01/11 01:37:03;;;;;;;;;;;-5.10;99.90;;;;;;5073275;28;20305;-32
2024/01/11 01:39:30;;;;;;;;;;;-5.20;99.90;;;;;;5072457;28;19933;-32
2024/01/11 01:41:57;;;;;;;;;;;-5.20;99.90;;;;;;5072774;28;19924;-32
2024/01/11 01:44:25;;;;;;;;;;;-5.20;99.90;;;;;;5073459;28;20357;-32
2024/01/11 01:46:52;;;;;;;;;;;-5.20;99.90;;;;;;5062995;28;20384;-31
2024/01/11 01:49:22;;;;;;;;;;;-5.20;99.90;;;;;;5072122;28;20403;-32
2024/01/11 01:51:48;;;;;;;;;;;-5.20;99.90;;;;;;5074473;28;20014;-34
2024/01/11 01:54:15;;;;;;;;;;;-5.20;99.90;;;;;;5093046;28;19924;-32
2024/01/11 01:56:42;;;;;;;;;;;-5.20;99.90;;;;;;5069415;28;20429;-32
2024/01/11 01:59:08;;;;;;;;;;;-5.30;99.90;;;;;;5073585;28;19924;-31
2024/01/11 02:01:36;;;;;;;;;;;-5.20;99.90;;;;;;5068665;28;19970;-31
2024/01/11 02:04:03;;;;;;;;;;;-5.20;99.90;;;;;;5072944;28;19978;-32
2024/01/11 02:06:31;;;;;;;;;;;-5.20;99.90;;;;;;5093355;28;19924;-33
2024/01/11 02:08:58;;;;;;;;;;;-5.30;99.90;;;;;;5071150;28;19950;-32
2024/01/11 02:11:25;;;;;;;;;;;-5.30;99.90;;;;;;5074640;28;19924;-31
2024/01/11 02:13:51;;;;;;;;;;;-5.30;99.90;;;;;;5075053;28;19928;-31
2024/01/11 02:16:18;;;;;;;;;;;-5.30;99.90;;;;;;5071190;28;19981;-31
2024/01/11 02:18:46;;;;;;;;;;;-5.40;99.90;;;;;;5084504;28;20344;-31
2024/01/11 02:21:13;;;;;;;;;;;-5.30;99.90;;;;;;5090313;28;19924;-32
2024/01/11 02:23:41;;;;;;;;;;;-5.30;99.90;;;;;;5093461;28;20394;-32
2024/01/11 02:26:15;;;;;;;;;;;-5.30;99.90;;;;;;5072364;28;19928;-32
2024/01/11 02:28:44;;;;;;;;;;;-5.40;99.90;;;;;;5092372;28;19971;-32
2024/01/11 02:31:11;;;;;;;;;;;-5.40;99.90;;;;;;5062303;28;20400;-31
2024/01/11 02:33:37;;;;;;;;;;;-5.30;99.90;;;;;;5071718;28;19924;-31
2024/01/11 02:36:04;;;;;;;;;;;-5.40;99.90;;;;;;5092450;28;19924;-33
2024/01/11 02:38:31;;;;;;;;;;;-5.40;99.90;;;;;;5073450;28;19989;-32
2024/01/11 02:40:58;;;;;;;;;;;-5.40;99.90;;;;;;5091686;28;20354;-31
2024/01/11 02:43:26;;;;;;;;;;;-5.40;99.90;;;;;;5093263;28;19930;-32
2024/01/11 02:45:55;;;;;;;;;;;-5.40;99.90;;;;;;5071802;28;19924;-31
2024/01/11 02:48:21;;;;;;;;;;;-5.40;99.90;;;;;;5070764;28;19925;-32
2024/01/11 02:50:49;;;;;;;;;;;-5.40;99.90;;;;;;5071327;28;20368;-34
2024/01/11 02:53:15;;;;;;;;;;;-5.40;99.90;;;;;;5070486;28;19968;-32
2024/01/11 02:55:42;;;;;;;;;;;-5.40;99.90;;;;;;5069275;28;19998;-32
2024/01/11 02:58:08;;;;;;;;;;;-5.40;99.90;;;;;;5067080;28;19986;-32
2024/01/11 03:00:36;;;;;;;;;;;-5.40;99.90;;;;;;5070393;28;19974;-31
2024/01/11 03:03:03;;;;;;;;;;;-5.40;99.90;;;;;;5071118;28;19928;-31
2024/01/11 03:05:30;;;;;;;;;;;-5.40;99.90;;;;;;5070879;28;19948;-30
2024/01/11 03:07:57;;;;;;;;;;;-5.50;99.90;;;;;;5060916;28;19925;-31
2024/01/11 03:10:23;;;;;;;;;;;-5.40;99.90;;;;;;5071370;28;20007;-32
2024/01/11 03:12:50;;;;;;;;;;;-5.50;99.90;;;;;;5068056;28;20980;-32
2024/01/11 03:15:16;;;;;;;;;;;-5.50;99.90;;;;;;5070364;28;20418;-32
2024/01/11 03:17:45;;;;;;;;;;;-5.40;99.90;;;;;;5071813;28;19925;-32
2024/01/11 03:20:12;;;;;;;;;;;-5.40;99.90;;;;;;5070520;28;19928;-31
2024/01/11 03:22:38;;;;;;;;;;;-5.40;99.90;;;;;;5070761;28;19924;-31
2024/01/11 03:25:05;;;;;;;;;;;-5.50;99.90;;;;;;5062400;28;19932;-32
2024/01/11 03:27:32;;;;;;;;;;;-5.50;99.90;;;;;;5064638;28;20368;-31
2024/01/11 03:29:58;;;;;;;;;;;-5.50;99.90;;;;;;5070511;28;19950;-33
2024/01/11 03:32:25;;;;;;;;;;;-5.50;99.90;;;;;;5070502;28;19924;-31
2024/01/11 03:34:53;;;;;;;;;;;-5.50;99.90;;;;;;5069418;28;19970;-32
2024/01/11 03:37:20;;;;;;;;;;;-5.60;99.90;;;;;;5068869;28;19934;-32
2024/01/11 03:39:46;;;;;;;;;;;-5.60;99.90;;;;;;5062724;28;20308;-32
2024/01/11 03:42:13;;;;;;;;;;;-5.60;99.90;;;;;;5070847;28;19950;-32
2024/01/11 03:44:40;;;;;;;;;;;-5.60;99.90;;;;;;5070556;28;19928;-31
2024/01/11 03:47:06;;;;;;;;;;;-5.60;99.90;;;;;;5059371;28;19967;-32
2024/01/11 03:49:33;;;;;;;;;;;-5.60;99.90;;;;;;5074209;28;19924;-33
2024/01/11 03:52:01;;;;;;;;;;;-5.60;99.90;;;;;;5072579;28;19928;-32
2024/01/11 03:54:27;;;;;;;;;;;-5.60;99.90;;;;;;5074501;28;19925;-33
2024/01/11 03:56:54;;;;;;;;;;;-5.60;99.90;;;;;;5067769;28;19973;-32
2024/01/11 03:59:21;;;;;;;;;;;-5.60;99.90;;;;;;5062718;28;19997;-32
2024/01/11 04:01:47;;;;;;;;;;;-5.60;99.90;;;;;;5066403;28;20485;-32
2024/01/11 04:04:14;;;;;;;;;;;-5.60;99.90;;;;;;5075319;28;19978;-32
2024/01/11 04:06:41;;;;;;;;;;;-5.60;99.90;;;;;;5073519;28;19932;-32
2024/01/11 04:09:08;;;;;;;;;;;-5.60;99.90;;;;;;5070918;28;19974;-31
2024/01/11 04:11:35;;;;;;;;;;;-5.70;99.90;;;;;;5070394;28;19978;-31
2024/01/11 04:14:02;;;;;;;;;;;-5.70;99.90;;;;;;5072284;28;19994;-32
2024/01/11 04:16:29;;;;;;;;;;;-5.60;99.90;;;;;;5062873;28;19969;-33
2024/01/11 04:18:55;;;;;;;;;;;-5.60;99.90;;;;;;5073175;28;19924;-32
2024/01/11 04:21:23;;;;;;;;;;;-5.70;99.90;;;;;;5070176;28;19924;-31
2024/01/11 04:23:52;;;;;;;;;;;-5.70;99.90;;;;;;5079184;28;19931;-31
2024/01/11 04:26:20;;;;;;;;;;;-5.60;99.90;;;;;;5092390;28;19928;-31
2024/01/11 04:28:47;;;;;;;;;;;-5.70;99.90;;;;;;5073585;28;19924;-31
2024/01/11 04:31:14;;;;;;;;;;;-5.70;99.90;;;;;;5072420;28;19977;-33
2024/01/11 04:33:41;;;;;;;;;;;-5.70;99.90;;;;;;5072572;28;19963;-32
2024/01/11 04:36:08;;;;;;;;;;;-5.80;99.90;;;;;;5066000;28;20331;-31
2024/01/11 04:38:34;;;;;;;;;;;-5.70;99.90;;;;;;5072660;28;19942;-31
2024/01/11 04:41:01;;;;;;;;;;;-5.70;99.90;;;;;;5064652;28;19928;-32
2024/01/11 04:43:29;;;;;;;;;;;-5.70;99.90;;;;;;5066555;28;20372;-31
2024/01/11 04:45:55;;;;;;;;;;;-5.70;99.90;;;;;;5094002;28;20321;-31
2024/01/11 04:48:22;;;;;;;;;;;-5.70;99.90;;;;;;5082994;28;19977;-32
2024/01/11 04:50:49;;;;;;;;;;;-5.70;99.90;;;;;;5074138;28;19974;-31
2024/01/11 04:53:15;;;;;;;;;;;-5.70;99.90;;;;;;5070780;28;19924;-32
2024/01/11 04:55:42;;;;;;;;;;;-5.80;99.90;;;;;;5071208;28;19924;-32
2024/01/11 04:58:09;;;;;;;;;;;-5.80;99.90;;;;;;5062741;28;19924;-32
2024/01/11 05:00:37;;;;;;;;;;;-5.80;99.90;;;;;;5078332;28;20073;-32
2024/01/11 05:03:03;;;;;;;;;;;-5.80;99.90;;;;;;5073271;28;19924;-32
2024/01/11 05:05:30;;;;;;;;;;;-5.80;99.90;;;;;;5060520;28;20159;-32
2024/01/11 05:07:57;;;;;;;;;;;-5.80;99.90;;;;;;5067947;28;20384;-31
2024/01/11 05:10:24;;;;;;;;;;;-5.90;99.90;;;;;;5068153;28;20549;-31
2024/01/11 05:12:51;;;;;;;;;;;-5.90;99.90;;;;;;5062977;28;19986;-31
2024/01/11 05:15:17;;;;;;;;;;;-6.00;99.90;;;;;;5064201;28;19943;-33
2024/01/11 05:17:45;;;;;;;;;;;-5.90;99.90;;;;;;5061412;28;19925;-32
2024/01/11 05:20:12;;;;;;;;;;;-5.90;99.90;;;;;;5070161;28;20236;-33
2024/01/11 05:22:38;;;;;;;;;;;-5.90;99.90;;;;;;5070991;28;19932;-32
2024/01/11 05:25:05;;;;;;;;;;;-5.80;99.90;;;;;;5069177;28;20376;-31
2024/01/11 05:27:32;;;;;;;;;;;-5.80;99.90;;;;;;5068898;28;19924;-31
2024/01/11 05:29:59;;;;;;;;;;;-5.80;99.90;;;;;;5057653;28;19929;-31
2024/01/11 05:32:25;;;;;;;;;;;-5.80;99.90;;;;;;5071259;28;19974;-32
2024/01/11 05:34:53;;;;;;;;;;;-5.70;99.90;;;;;;5073709;28;20342;-31
2024/01/11 05:37:20;;;;;;;;;;;-5.70;99.90;;;;;;5061720;28;19924;-32
2024/01/11 05:39:47;;;;;;;;;;;-5.70;99.90;;;;;;5073428;28;20015;-32
2024/01/11 05:42:14;;;;;;;;;;;-5.60;99.90;;;;;;5069593;28;19978;-32
2024/01/11 05:44:40;;;;;;;;;;;-5.70;99.90;;;;;;5065451;28;19980;-31
2024/01/11 05:47:07;;;;;;;;;;;-5.60;99.90;;;;;;5059751;28;19925;-31
2024/01/11 05:49:33;;;;;;;;;;;-5.60;99.90;;;;;;5068194;28;19928;-32
2024/01/11 05:52:02;;;;;;;;;;;-5.60;99.90;;;;;;5070755;28;19928;-32
2024/01/11 05:54:28;;;;;;;;;;;-5.50;99.90;;;;;;5072523;28;20405;-31
2024/01/11 05:56:57;;;;;;;;;;;-5.40;99.90;;;;;;5073140;28;20356;-31
2024/01/11 05:59:24;;;;;;;;;;;-5.40;99.90;;;;;;5071903;28;19932;-31
2024/01/11 06:01:51;;;;;;;;;;;-5.40;99.90;;;;;;5072856;28;20404;-32
2024/01/11 06:04:17;;;;;;;;;;;-5.30;99.90;;;;;;5075143;28;19924;-32
2024/01/11 06:06:44;;;;;;;;;;;-5.30;99.90;;;;;;5092494;28;20021;-32
2024/01/11 06:09:12;;;;;;;;;;;-5.30;99.90;;;;;;5075987;28;19924;-32
2024/01/11 06:11:38;;;;;;;;;;;-5.20;99.90;;;;;;5071589;28;20014;-32
2024/01/11 06:14:05;;;;;;;;;;;-5.10;99.90;;;;;;5067166;28;19979;-31
2024/01/11 06:16:32;;;;;;;;;;;-5.10;99.90;;;;;;5071075;28;19932;-32
2024/01/11 06:18:58;;;;;;;;;;;-5.10;99.90;;;;;;5090777;28;20325;-32
2024/01/11 06:21:25;;;;;;;;;;;-5.00;99.90;;;;;;5090788;28;20368;-32
2024/01/11 06:23:52;;;;;;;;;;;-4.90;99.90;;;;;;5076071;28;19950;-32
2024/01/11 06:26:19;;;;;;;;;;;-4.90;99.90;;;;;;5074503;28;19924;-32
2024/01/11 06:28:46;;;;;;;;;;;-4.90;99.90;;;;;;5092939;28;19954;-30
2024/01/11 06:31:13;;;;;;;;;;;-4.70;99.90;;;;;;5073493;28;19925;-31
2024/01/11 06:33:39;;;;;;;;;;;-4.70;99.90;;;;;;5074065;28;19971;-32
2024/01/11 06:36:07;;;;;;;;;;;-4.70;99.90;;;;;;5074684;28;19924;-32
2024/01/11 06:38:33;;;;;;;;;;;-4.70;99.90;;;;;;5091693;28;20022;-33
2024/01/11 06:41:00;;;;;;;;;;;-4.60;99.90;;;;;;5093390;28;20020;-31
2024/01/11 06:43:28;;;;;;;;;;;-4.60;99.90;;;;;;5073388;28;19925;-32
2024/01/11 06:45:55;;;;;;;;;;;-4.50;99.90;;;;;;5074996;28;19924;-31
2024/01/11 06:48:21;;;;;;;;;;;-4.50;99.90;;;;;;5070162;28;19928;-31
2024/01/11 06:50:48;;;;;;;;;;;-4.40;99.90;;;;;;5067949;28;19924;-32
2024/01/11 06:53:15;;;;;;;;;;;-4.40;99.90;;;;;;5072061;28;19924;-31
2024/01/11 06:55:43;;;;;;;;;;;-4.40;99.90;;;;;;5071420;28;19928;-31
2024/01/11 06:58:10;;;;;;;;;;;-4.30;99.90;;;;;;5071566;28;19955;-32
2024/01/11 07:00:42;;;;;;;;;;;-4.30;99.90;;;;;;5062281;28;19925;-32
2024/01/11 07:03:09;;;;;;;;;;;-4.20;99.90;;;;;;5069412;28;19924;-32
2024/01/11 07:05:36;;;;;;;;;;;-4.20;99.90;;;;;;5069058;28;20019;-33
2024/01/11 07:08:02;;;;;;;;;;;-4.20;99.90;;;;;;5066558;28;19925;-32
2024/01/11 07:10:29;;;;;;;;;;;-4.10;99.90;;;;;;5070765;28;19928;-32
2024/01/11 07:12:56;;;;;;;;;;;-4.10;99.90;;;;;;5070195;28;19990;-32
2024/01/11 07:15:23;;;;;;;;;;;-4.00;99.90;;;;;;5067712;28;19924;-32
2024/01/11 07:17:53;;;;;;;;;;;-3.90;99.90;;;;;;5069422;28;20692;-32
2024/01/11 07:20:19;;;;;;;;;;;-3.90;99.90;;;;;;5059292;28;19933;-33
2024/01/11 07:22:46;;;;;;;;;;;-3.80;99.90;;;;;;5069985;28;19924;-32
2024/01/11 07:25:14;;;;;;;;;;;-3.80;99.90;;;;;;5072088;28;20284;-32
2024/01/11 07:27:40;;;;;;;;;;;-3.80;99.90;;;;;;5072263;28;20015;-31
2024/01/11 07:30:08;;;;;;;;;;;-3.70;99.90;;;;;;5071209;28;19937;-32
2024/01/11 07:32:35;;;;;;;;;;;-3.70;99.90;;;;;;5070315;28;19933;-32
2024/01/11 07:35:03;;;;;;;;;;;-3.70;99.90;;;;;;5071569;28;20429;-32
2024/01/11 07:37:29;;;;;;;;;;;-3.60;99.90;;;;;;5071993;28;19924;-32
2024/01/11 07:39:56;;;;;;;;;;;-3.60;99.90;;;;;;5071778;28;19989;-33
2024/01/11 07:42:23;;;;;;;;;;;-3.50;99.90;;;;;;5068391;28;19995;-32
2024/01/11 07:44:49;;;;;;;;;;;-3.50;99.90;;;;;;5052894;28;19978;-32
2024/01/11 07:47:17;;;;;;;;;;;-3.50;99.90;;;;;;5051764;28;19970;-30
2024/01/11 07:49:44;;;;;;;;;;;-3.30;99.90;;;;;;5051262;28;20444;-31
2024/01/11 07:52:12;;;;;;;;;;;-3.30;99.90;;;;;;5051711;28;19925;-33
2024/01/11 07:54:38;;;;;;;;;;;-3.30;99.90;;;;;;5051658;28;19986;-31
2024/01/11 07:57:05;;;;;;;;;;;-3.30;99.90;;;;;;5051538;28;19925;-31
2024/01/11 07:59:35;;;;;;;;;;;-3.20;99.90;;;;;;5055043;28;20068;-32
2024/01/11 08:02:02;;;;;;;;;;;-3.20;99.90;;;;;;5070905;28;19935;-32
2024/01/11 08:04:29;;;;;;;;;;;-3.10;99.90;;;;;;5071360;28;19924;-32
2024/01/11 08:06:55;;;;;;;;;;;-3.10;99.90;;;;;;5072436;28;19924;-32
2024/01/11 08:09:23;;;;;;;;;;;-3.10;99.90;;;;;;5071597;28;19929;-32
2024/01/11 08:11:50;;;;;;;;;;;-3.00;99.90;;;;;;5054686;28;19928;-31
2024/01/11 08:14:17;;;;;;;;;;;-2.90;99.90;;;;;;5051415;28;19924;-32
2024/01/11 08:16:43;;;;;;;;;;;-2.90;99.90;;;;;;5051482;28;19967;-31
2024/01/11 08:19:10;;;;;;;;;;;-2.90;99.90;;;;;;5066419;28;19970;-32
2024/01/11 08:21:37;;;;;;;;;;;-2.90;99.90;;;;;;5075324;28;20303;-31
2024/01/11 08:24:04;;;;;;;;;;;-2.80;99.90;;;;;;5075668;28;19979;-33
2024/01/11 08:26:32;;;;;;;;;;;-2.70;99.90;;;;;;5075157;28;19924;-32
2024/01/11 08:28:58;;;;;;;;;;;-2.70;99.90;;;;;;5075487;28;19924;-32
2024/01/11 08:31:25;;;;;;;;;;;-2.70;99.90;;;;;;5075338;28;20449;-31
2024/01/11 08:33:52;;;;;;;;;;;-2.70;99.90;;;;;;5075182;28;19924;-31
2024/01/11 08:36:18;;;;;;;;;;;-2.60;99.90;;;;;;5065759;28;20006;-32
2024/01/11 08:38:45;;;;;;;;;;;-2.60;99.90;;;;;;5056473;28;19924;-32
2024/01/11 08:41:11;;;;;;;;;;;-2.50;99.90;;;;;;5054846;28;19924;-32
2024/01/11 08:43:40;;;;;;;;;;;-2.40;99.90;;;;;;5054988;28;19956;-31
2024/01/11 08:46:06;;;;;;;;;;;-2.40;99.90;;;;;;5054723;28;19925;-31
2024/01/11 08:48:33;;;;;;;;;;;-2.30;99.90;;;;;;5055068;28;19979;-31
2024/01/11 08:51:00;;;;;;;;;;;-2.40;99.90;;;;;;5058327;28;19990;-31
2024/01/11 08:53:26;;;;;;;;;;;-2.10;99.90;;;;;;5058297;28;19978;-32
2024/01/11 08:55:54;;;;;;;;;;;-2.30;99.90;;;;;;5057731;28;19982;-32
2024/01/11 08:58:20;;;;;;;;;;;-2.30;99.90;;;;;;5075754;28;19930;-32
2024/01/11 09:00:48;;;;;;;;;;;-2.20;99.90;;;;;;5072190;28;20458;-33
2024/01/11 09:03:16;;;;;;;;;;;-2.10;99.90;;;;;;5078045;28;19928;-31
2024/01/11 09:05:43;;;;;;;;;;;-2.10;99.90;;;;;;5062568;28;20007;-31
2024/01/11 09:08:10;;;;;;;;;;;-2.00;99.90;;;;;;5058311;28;19930;-32
2024/01/11 09:10:36;;;;;;;;;;;-2.00;99.90;;;;;;5057918;28;19924;-32
2024/01/11 09:13:03;;;;;;;;;;;-1.90;99.90;;;;;;5075334;28;20338;-32
2024/01/11 09:15:30;;;;;;;;;;;-1.90;99.90;;;;;;5058109;28;19986;-32
2024/01/11 09:17:58;;;;;;;;;;;-1.80;99.90;;;;;;5057182;28;19924;-32
2024/01/11 09:20:24;;;;;;;;;;;-1.90;99.90;;;;;;5057890;28;19959;-33
2024/01/11 09:22:51;;;;;;;;;;;-1.80;99.90;;;;;;5057279;28;19986;-31
2024/01/11 09:25:18;;;;;;;;;;;-1.70;99.90;;;;;;5057917;28;20322;-32
2024/01/11 09:27:44;;;;;;;;;;;-1.60;99.90;;;;;;5057432;28;19924;-32
2024/01/11 09:30:11;;;;;;;;;;;-1.60;99.90;;;;;;5074883;28;19928;-32
2024/01/11 09:32:38;;;;;;;;;;;-1.50;99.90;;;;;;5057343;28;19925;-32
2024/01/11 09:35:07;;;;;;;;;;;-1.40;99.90;;;;;;5075324;28;19924;-32
2024/01/11 09:37:33;;;;;;;;;;;-1.40;99.90;;;;;;5057284;28;19960;-32
2024/01/11 09:40:01;;;;;;;;;;;-1.40;99.90;;;;;;5057352;28;19950;-31
2024/01/11 09:42:29;;;;;;;;;;;-1.30;99.90;;;;;;5057010;28;19931;-31
2024/01/11 09:44:57;;;;;;;;;;;-1.30;99.90;;;;;;5074948;28;19931;-32
2024/01/11 09:47:24;;;;;;;;;;;-1.20;99.90;;;;;;5056995;28;19929;-32
2024/01/11 09:49:51;;;;;;;;;;;-1.20;99.90;;;;;;5064587;28;19924;-31
2024/01/11 09:52:19;;;;;;;;;;;-1.20;99.90;;;;;;5073867;28;20011;-33
2024/01/11 09:54:46;;;;;;;;;;;-1.10;99.90;;;;;;5073796;28;20384;-34
2024/01/11 09:57:12;;;;;;;;;;;-1.10;99.90;;;;;;5073649;28;19931;-33
2024/01/11 09:59:39;;;;;;;;;;;-1.00;99.90;;;;;;5066879;28;19932;-32
2024/01/11 10:02:08;;;;;;;;;;;-0.90;99.90;;;;;;5094691;28;19924;-33
2024/01/11 10:04:34;;;;;;;;;;;-0.90;99.90;;;;;;5095186;28;20303;-33
2024/01/11 10:07:02;;;;;;;;;;;-0.80;99.90;;;;;;5093774;28;19998;-31
2024/01/11 10:09:30;;;;;;;;;;;-0.80;99.90;;;;;;5078882;28;19993;-31
2024/01/11 10:11:56;;;;;;;;;;;-0.80;99.90;;;;;;5073491;28;19924;-31
2024/01/11 10:14:23;;;;;;;;;;;-0.70;99.90;;;;;;5072674;28;20373;-31
2024/01/11 10:16:49;;;;;;;;;;;-0.70;99.90;;;;;;5073217;28;19929;-31
2024/01/11 10:19:16;;;;;;;;;;;-0.60;99.90;;;;;;5073510;28;19974;-34
2024/01/11 10:21:43;;;;;;;;;;;-0.50;99.90;;;;;;5073294;28;19928;-32
2024/01/11 10:24:10;;;;;;;;;;;-0.50;99.90;;;;;;5073854;28;20686;-31
2024/01/11 10:26:38;;;;;;;;;;;-0.40;99.90;;;;;;5073307;28;20299;-31
2024/01/11 10:29:10;;;;;;;;;;;-0.40;99.90;;;;;;5073136;28;19928;-31
2024/01/11 10:31:37;;;;;;;;;;;-0.30;99.90;;;;;;5074296;28;20298;-31
2024/01/11 10:34:04;;;;;;;;;;;-0.10;99.90;;;;;;5073202;28;19964;-32
2024/01/11 10:36:31;;;;;;;;;;;-0.20;99.90;;;;;;5073104;28;19924;-33
2024/01/11 10:38:58;;;;;;;;;;;-0.20;99.90;;;;;;5072907;28;20377;-32
2024/01/11 10:41:24;;;;;;;;;;;-0.20;99.90;;;;;;5073677;28;19925;-32
2024/01/11 10:43:52;;;;;;;;;;;-0.10;99.90;;;;;;5072863;28;19924;-32
2024/01/11 10:46:22;;;;;;;;;;;0.00;99.90;;;;;;5054406;28;19925;-32
2024/01/11 10:48:48;;;;;;;;;;;-0.10;99.90;;;;;;5057216;28;20372;-33
2024/01/11 10:51:15;;;;;;;;;;;0.10;99.90;;;;;;5056066;28;19925;-31
2024/01/11 10:53:42;;;;;;;;;;;0.10;99.90;;;;;;5055740;28;19924;-33
2024/01/11 10:56:09;;;;;;;;;;;0.10;99.90;;;;;;5055836;28;19931;-32
2024/01/11 10:58:36;;;;;;;;;;;0.10;99.90;;;;;;5055771;28;19929;-32
2024/01/11 11:01:05;;;;;;;;;;;0.20;99.90;;;;;;5073567;28;20399;-32
2024/01/11 11:03:32;;;;;;;;;;;0.20;99.90;;;;;;5055410;28;20015;-33
2024/01/11 11:05:59;;;;;;;;;;;0.30;99.90;;;;;;5055768;28;19924;-34
2024/01/11 11:08:26;;;;;;;;;;;0.30;99.90;;;;;;5055790;28;19924;-33
2024/01/11 11:10:55;;;;;;;;;;;0.30;99.90;;;;;;5056168;28;20464;-32
2024/01/11 11:13:22;;;;;;;;;;;0.40;99.90;;;;;;5073558;28;19924;-33
2024/01/11 11:15:49;;;;;;;;;;;0.40;99.90;;;;;;5055516;28;19974;-33
2024/01/11 11:18:18;;;;;;;;;;;0.40;99.90;;;;;;5073450;28;19928;-32
2024/01/11 11:20:44;;;;;;;;;;;0.50;99.90;;;;;;5055298;28;20360;-33
2024/01/11 11:23:12;;;;;;;;;;;0.40;99.90;;;;;;5055049;28;19924;-32
2024/01/11 11:25:39;;;;;;;;;;;0.50;99.90;;;;;;5055032;28;19925;-32
2024/01/11 11:28:06;;;;;;;;;;;0.50;99.90;;;;;;5054863;28;20394;-33
2024/01/11 11:30:33;;;;;;;;;;;0.60;99.90;;;;;;5055381;28;20013;-32
2024/01/11 11:33:08;;;;;;;;;;;0.50;99.90;;;;;;5054763;28;20423;-32
2024/01/11 11:35:36;;;;;;;;;;;0.60;99.90;;;;;;5054813;28;20449;-32
2024/01/11 11:38:02;;;;;;;;;;;0.70;99.90;;;;;;5055220;28;19925;-33
2024/01/11 11:40:39;;;;;;;;;;;0.70;99.90;;;;;;5054994;28;19985;-32
2024/01/11 11:43:05;;;;;;;;;;;0.70;99.90;;;;;;5072860;28;19924;-32
2024/01/11 11:45:32;;;;;;;;;;;0.70;99.90;;;;;;5072817;28;19931;-32
2024/01/11 11:47:59;;;;;;;;;;;0.70;99.90;;;;;;5054872;28;19935;-32
2024/01/11 11:50:25;;;;;;;;;;;0.80;99.90;;;;;;5072621;28;19925;-32
2024/01/11 11:52:56;;;;;;;;;;;0.80;99.90;;;;;;5071302;28;19978;-32
2024/01/11 11:55:23;;;;;;;;;;;0.80;99.90;;;;;;5070194;28;19928;-32
2024/01/11 11:57:49;;;;;;;;;;;0.80;99.90;;;;;;5068943;28;19978;-32
2024/01/11 12:00:17;;;;;;;;;;;0.80;99.90;;;;;;5072728;28;19986;-34
2024/01/11 12:02:43;;;;;;;;;;;0.80;99.90;;;;;;5071407;28;19928;-34
2024/01/11 12:05:10;;;;;;;;;;;0.90;99.90;;;;;;5070884;28;19925;-32
2024/01/11 12:07:36;;;;;;;;;;;0.90;99.90;;;;;;5071445;28;19924;-32
2024/01/11 12:10:05;;;;;;;;;;;1.00;99.90;;;;;;5071413;28;20372;-33
2024/01/11 12:12:31;;;;;;;;;;;1.00;99.90;;;;;;5071639;28;20296;-32
2024/01/11 12:14:58;;;;;;;;;;;1.00;99.90;;;;;;5070878;28;19925;-32
2024/01/11 12:17:25;;;;;;;;;;;1.10;99.90;;;;;;5071329;28;19954;-32
2024/01/11 12:19:52;;;;;;;;;;;1.00;99.90;;;;;;5071393;28;20410;-33
2024/01/11 12:22:19;;;;;;;;;;;1.10;99.90;;;;;;5071195;28;20020;-32
2024/01/11 12:24:46;;;;;;;;;;;1.10;99.90;;;;;;5068363;28;19924;-32
2024/01/11 12:27:14;;;;;;;;;;;1.10;99.90;;;;;;5051372;28;19924;-33
2024/01/11 12:29:41;;;;;;;;;;;1.10;99.90;;;;;;5051413;28;20387;-33
2024/01/11 12:32:10;;;;;;;;;;;1.20;99.90;;;;;;5065969;28;19925;-33
2024/01/11 12:34:37;;;;;;;;;;;1.20;99.90;;;;;;5069883;28;20288;-34
2024/01/11 12:37:05;;;;;;;;;;;1.10;99.90;;;;;;5050798;28;19932;-33
2024/01/11 12:39:32;;;;;;;;;;;1.20;99.90;;;;;;5056858;28;20023;-35
2024/01/11 12:41:58;;;;;;;;;;;1.20;99.90;;;;;;5069637;28;19931;-33
2024/01/11 12:44:26;;;;;;;;;;;1.20;99.90;;;;;;5070534;28;20342;-34
2024/01/11 12:46:53;;;;;;;;;;;1.20;99.90;;;;;;5051176;28;20536;-34
2024/01/11 12:49:19;;;;;;;;;;;1.20;99.90;;;;;;5070609;28;19931;-34
2024/01/11 12:51:46;;;;;;;;;;;1.20;99.90;;;;;;5074968;28;19925;-33
2024/01/11 12:54:13;;;;;;;;;;;1.20;99.90;;;;;;5058728;28;19924;-33
2024/01/11 12:56:43;;;;;;;;;;;1.20;99.90;;;;;;5072666;28;19924;-33
2024/01/11 12:59:10;;;;;;;;;;;1.30;99.90;;;;;;5074205;28;19961;-33
2024/01/11 13:01:38;;;;;;;;;;;1.30;99.90;;;;;;5092178;28;19927;-34
2024/01/11 13:04:06;;;;;;;;;;;1.30;99.90;;;;;;5074003;28;19924;-33
2024/01/11 13:06:34;;;;;;;;;;;1.30;99.90;;;;;;5075987;28;19924;-32
2024/01/11 13:09:01;;;;;;;;;;;1.30;99.90;;;;;;5079261;28;19924;-31
2024/01/11 13:11:27;;;;;;;;;;;1.30;99.90;;;;;;5071458;28;20019;-31
2024/01/11 13:13:54;;;;;;;;;;;1.30;99.90;;;;;;5060798;28;19928;-32
2024/01/11 13:16:20;;;;;;;;;;;1.40;99.90;;;;;;5057715;28;19924;-34
2024/01/11 13:18:49;;;;;;;;;;;1.30;99.90;;;;;;5057691;28;20380;-33
2024/01/11 13:21:16;;;;;;;;;;;1.30;99.90;;;;;;5074431;28;19954;-32
2024/01/11 13:23:43;;;;;;;;;;;1.30;99.90;;;;;;5057399;28;19968;-31
2024/01/11 13:26:09;;;;;;;;;;;1.30;99.90;;;;;;5057517;28;19924;-33
2024/01/11 13:28:36;;;;;;;;;;;1.30;99.90;;;;;;5057932;28;19985;-32
2024/01/11 13:31:03;;;;;;;;;;;1.30;99.90;;;;;;5057279;28;19970;-33
2024/01/11 13:33:29;;;;;;;;;;;1.30;99.90;;;;;;5057830;28;19932;-33
2024/01/11 13:35:57;;;;;;;;;;;1.30;99.90;;;;;;5057081;28;19986;-32
2024/01/11 13:38:24;;;;;;;;;;;1.30;99.90;;;;;;5057695;28;19928;-33
2024/01/11 13:40:50;;;;;;;;;;;1.30;99.90;;;;;;5075099;28;19977;-32
2024/01/11 13:43:18;;;;;;;;;;;1.30;99.90;;;;;;5057098;28;19970;-32
2024/01/11 13:45:45;;;;;;;;;;;1.30;99.90;;;;;;5056996;28;19980;-33
2024/01/11 13:48:11;;;;;;;;;;;1.30;99.90;;;;;;5057202;28;19925;-34
2024/01/11 13:50:38;;;;;;;;;;;1.30;99.90;;;;;;5072463;28;19924;-33
2024/01/11 13:53:06;;;;;;;;;;;1.30;99.90;;;;;;5076725;28;19928;-34
2024/01/11 13:55:37;;;;;;;;;;;1.30;99.90;;;;;;5094638;28;19994;-32
2024/01/11 13:58:04;;;;;;;;;;;1.30;99.90;;;;;;5095056;28;19932;-33
2024/01/11 14:00:31;;;;;;;;;;;1.30;99.90;;;;;;5075775;28;19924;-34
2024/01/11 14:02:57;;;;;;;;;;;1.30;99.90;;;;;;5094881;28;19977;-34
2024/01/11 14:05:24;;;;;;;;;;;1.30;99.90;;;;;;5094337;28;19928;-32
2024/01/11 14:07:54;;;;;;;;;;;1.40;99.90;;;;;;5076483;28;20471;-32
2024/01/11 14:10:22;;;;;;;;;;;1.30;99.90;;;;;;5095296;28;20014;-32
2024/01/11 14:12:49;;;;;;;;;;;1.30;99.90;;;;;;5076140;28;19932;-32
2024/01/11 14:15:16;;;;;;;;;;;1.30;99.90;;;;;;5094652;28;19924;-33
2024/01/11 14:17:43;;;;;;;;;;;1.30;99.90;;;;;;5069871;28;19969;-33
2024/01/11 14:20:12;;;;;;;;;;;1.30;99.90;;;;;;5058577;28;19982;-33